Data for 05/30/2008

Time Sea-Level Adjusted Pressure Absolute Pressure Temperature Relative Humidity Dew Point   
(mb) (inHg) (mb) (inHg) (C) (F) (%) (C) (F)
00:05 1017 30.03 847 25.01 9.8 49.7 92 8.6 47.5
00:10 1018 30.06 847 25.01 9.9 49.9 93 8.8 47.8
00:15 1018 30.06 847 25.01 9.9 49.9 93 8.8 47.8
00:20 1018 30.06 847 25.01 9.9 49.9 92 8.7 47.7
00:25 1018 30.06 847 25.01 9.9 49.9 92 8.7 47.7
00:30 1018 30.06 847 25.01 9.8 49.7 92 8.5 47.4
00:35 1017 30.03 847 25.01 9.7 49.4 92 8.5 47.3
00:40 1017 30.03 847 25.01 9.5 49 94 8.6 47.5
00:45 1017 30.03 847 25.01 9.2 48.6 96 8.6 47.4
00:50 1017 30.03 847 25.01 9 48.3 97 8.5 47.4
00:55 1017 30.03 847 25.01 8.9 48.1 98 8.6 47.4
01:00 1017 30.03 847 25.01 8.8 47.9 98 8.4 47.2
01:05 1017 30.03 847 25.01 8.8 47.8 98 8.4 47.1
01:10 1017 30.03 847 25.01 8.8 47.9 98 8.4 47.2
01:15 1017 30.03 847 25.01 8.9 48.1 97 8.5 47.3
01:20 1017 30.03 846 24.98 9 48.3 97 8.6 47.4
01:25 1017 30.03 846 24.98 8.9 48 97 8.5 47.2
01:30 1017 30.03 846 24.98 8.8 47.9 97 8.4 47.2
01:35 1017 30.03 846 24.98 8.8 47.8 97 8.4 47
01:40 1017 30.03 846 24.98 8.8 47.8 97 8.3 46.9
01:45 1017 30.03 846 24.98 8.7 47.7 97 8.2 46.8
01:50 1017 30.03 846 24.98 8.7 47.6 96 8.1 46.6
01:55 1017 30.03 846 24.98 8.7 47.6 96 8.1 46.5
02:00 1017 30.03 846 24.98 8.7 47.7 96 8.1 46.6
02:05 1017 30.03 846 24.98 8.8 47.8 96 8.2 46.7
02:10 1017 30.03 846 24.98 8.8 47.8 97 8.2 46.8
02:15 1017 30.03 846 24.98 8.7 47.7 97 8.2 46.8
02:20 1017 30.03 846 24.98 8.7 47.7 97 8.2 46.8
02:25 1017 30.03 846 24.98 8.8 47.9 96 8.3 46.9
02:30 1017 30.03 846 24.98 8.9 48 95 8.2 46.8
02:35 1017 30.03 846 24.98 9.1 48.4 95 8.3 47
02:40 1017 30.03 846 24.98 9.4 48.9 92 8.2 46.7
02:45 1017 30.03 846 24.98 9.9 49.8 91 8.5 47.3
02:50 1017 30.03 846 24.98 10 50 90 8.4 47.1
02:55 1017 30.03 846 24.98 10 50.1 90 8.5 47.3
03:00 1017 30.03 846 24.98 9.9 49.8 91 8.5 47.3
03:05 1017 30.03 847 25.01 9.7 49.4 92 8.4 47.1
03:10 1017 30.03 847 25.01 9.4 48.9 93 8.3 46.9
03:15 1017 30.03 847 25.01 9.3 48.7 94 8.3 46.9
03:20 1017 30.03 847 25.01 9.4 48.9 94 8.4 47.1
03:25 1017 30.03 847 25.01 9.5 49.1 94 8.5 47.3
03:30 1017 30.03 847 25.01 9.5 49.1 93 8.4 47.1
03:35 1017 30.03 847 25.01 9.5 49.1 93 8.4 47.1
03:40 1017 30.03 847 25.01 9.5 49.1 93 8.4 47.2
03:45 1017 30.03 847 25.01 9.5 49.2 92 8.3 46.9
03:50 1017 30.03 847 25.01 9.7 49.5 91 8.3 47
03:55 1018 30.06 847 25.01 9.8 49.6 91 8.4 47.1
04:00 1018 30.06 847 25.01 9.7 49.4 92 8.5 47.3
04:05 1018 30.06 847 25.01 9.3 48.7 94 8.3 46.9
04:10 1018 30.06 847 25.01 9.1 48.3 94 8.2 46.7
04:15 1018 30.06 847 25.01 9.1 48.3 94 8.1 46.7
04:20 1018 30.06 847 25.01 9.1 48.4 94 8.1 46.6
04:25 1018 30.06 847 25.01 9.2 48.5 93 8.1 46.6
04:30 1018 30.06 847 25.01 9.2 48.6 93 8.2 46.8
04:35 1018 30.06 847 25.01 9.3 48.8 92 8.2 46.7
04:40 1018 30.06 847 25.01 9.4 48.9 92 8.1 46.5
04:45 1018 30.06 847 25.01 9.2 48.6 92 8 46.4
04:50 1018 30.06 847 25.01 9 48.3 92 7.8 46.1
04:55 1018 30.06 847 25.01 9 48.3 92 7.8 46
05:00 1018 30.06 847 25.01 9 48.2 92 7.7 45.9
05:05 1018 30.06 847 25.01 9 48.2 91 7.6 45.7
05:10 1018 30.06 847 25.01 9 48.1 91 7.5 45.6
05:15 1018 30.06 847 25.01 8.9 48.1 90 7.4 45.4
05:20 1018 30.06 847 25.01 8.9 48.1 91 7.5 45.5
05:25 1018 30.06 847 25.01 8.9 48 91 7.5 45.5
05:30 1018 30.06 847 25.01 8.9 48 91 7.4 45.4
05:35 1018 30.06 847 25.01 8.9 48.1 90 7.4 45.4
05:40 1018 30.06 847 25.01 8.9 48 91 7.5 45.5
05:45 1018 30.06 847 25.01 8.9 48 91 7.4 45.4
05:50 1018 30.06 847 25.01 8.9 48 91 7.4 45.4
05:55 1018 30.06 847 25.01 8.8 47.8 91 7.4 45.3
06:00 1018 30.06 847 25.01 8.6 47.5 91 7.3 45.1
06:05 1018 30.06 847 25.01 8.5 47.2 91 7.1 44.9
06:10 1018 30.06 847 25.01 8.4 47.2 92 7.2 44.9
06:15 1018 30.06 847 25.01 8.4 47.1 92 7.2 44.9
06:20 1018 30.06 847 25.01 8.5 47.2 92 7.2 44.9
06:25 1018 30.06 848 25.04 8.4 47.1 92 7.1 44.8
06:30 1018 30.06 848 25.04 8.5 47.3 91 7.1 44.8
06:35 1018 30.06 848 25.04 8.6 47.6 90 7.1 44.8
06:40 1019 30.09 848 25.04 8.8 47.8 90 7.2 44.9
06:45 1019 30.09 848 25.04 8.8 47.9 89 7.2 45
06:50 1019 30.09 848 25.04 8.9 48 89 7.2 45
06:55 1019 30.09 848 25.04 9.1 48.4 89 7.4 45.3
07:00 1019 30.09 848 25.04 9.3 48.7 88 7.4 45.3
07:05 1019 30.09 848 25.04 9.2 48.6 88 7.3 45.1
07:10 1019 30.09 848 25.04 9.2 48.6 87 7.2 45
07:15 1019 30.09 848 25.04 9.3 48.7 87 7.2 45
07:20 1019 30.09 848 25.04 9.4 48.8 87 7.2 45
07:25 1019 30.09 848 25.04 9.4 49 86 7.3 45.1
07:30 1019 30.09 848 25.04 9.7 49.4 86 7.4 45.2
07:35 1019 30.09 848 25.04 10.1 50.2 86 7.8 46.1
07:40 1019 30.09 848 25.04 10.6 51 84 8 46.4
07:45 1019 30.09 848 25.04 10.8 51.5 80 7.6 45.7
07:50 1019 30.09 848 25.04 10.7 51.3 80 7.5 45.5
07:55 1019 30.09 848 25.04 10.7 51.3 80 7.4 45.4
08:00 1019 30.09 848 25.04 10.8 51.4 79 7.3 45.2
08:05 1019 30.09 848 25.04 10.8 51.5 78 7.2 44.9
08:10 1019 30.09 848 25.04 11.1 52.1 77 7.2 45
08:15 1019 30.09 848 25.04 11.5 52.7 76 7.4 45.3
08:20 1019 30.09 848 25.04 11.7 53 75 7.3 45.2
08:25 1019 30.09 848 25.04 11.8 53.3 73 7.2 44.9
08:30 1019 30.09 848 25.04 12 53.6 72 7.2 45
08:35 1019 30.09 848 25.04 12.1 53.8 71 7.1 44.8
08:40 1019 30.09 848 25.04 12.3 54.1 70 7 44.6
08:45 1019 30.09 848 25.04 12.3 54.2 70 7.1 44.8
08:50 1019 30.09 848 25.04 12.3 54.2 70 7 44.6
08:55 1019 30.09 848 25.04 12.3 54.1 70 7.1 44.7
09:00 1019 30.09 848 25.04 12.2 53.9 71 7.1 44.8
09:05 1019 30.09 848 25.04 12.3 54.1 72 7.4 45.3
09:10 1019 30.09 848 25.04 12.1 53.7 71 7 44.7
09:15 1019 30.09 849 25.07 11.9 53.5 71 6.8 44.3
09:20 1019 30.09 849 25.07 12 53.5 71 7 44.5
09:25 1019 30.09 849 25.07 11.8 53.2 72 7 44.6
09:30 1019 30.09 849 25.07 11.9 53.4 71 6.9 44.5
09:35 1019 30.09 849 25.07 12.2 53.9 70 6.9 44.4
09:40 1019 30.09 849 25.07 12.3 54.1 69 6.8 44.3
09:45 1019 30.09 849 25.07 11.9 53.5 70 6.6 43.9
09:50 1019 30.09 849 25.07 12.3 54.2 67 6.4 43.6
09:55 1019 30.09 849 25.07 12.3 54.2 67 6.5 43.7
10:00 1019 30.09 849 25.07 12.5 54.5 67 6.7 44
10:05 1019 30.09 849 25.07 12.4 54.3 68 6.6 43.9
10:10 1019 30.09 849 25.07 12.8 55 67 6.8 44.2
10:15 1019 30.09 849 25.07 13.5 56.2 64 6.9 44.5
10:20 1019 30.09 849 25.07 13.9 56.9 62 6.8 44.2
10:25 1019 30.09 849 25.07 13.8 56.9 62 6.9 44.3
10:30 1019 30.09 849 25.07 13.8 56.9 63 6.9 44.4
10:35 1019 30.09 849 25.07 13.6 56.4 65 7.1 44.7
10:40 1019 30.09 849 25.07 13.5 56.3 65 7 44.7
10:45 1019 30.09 849 25.07 13.7 56.6 64 7 44.6
10:50 1019 30.09 849 25.07 13.7 56.6 64 7.1 44.7
10:55 1019 30.09 849 25.07 14.4 57.9 61 7 44.6
11:00 1019 30.09 849 25.07 15.4 59.7 56 6.7 44
11:05 1019 30.09 849 25.07 15.8 60.4 55 6.7 44.1
11:10 1020 30.12 849 25.07 15.7 60.3 54 6.6 43.8
11:15 1020 30.12 849 25.07 16.1 60.9 53 6.6 43.8
11:20 1020 30.12 849 25.07 15.8 60.4 54 6.6 43.9
11:25 1020 30.12 849 25.07 15.9 60.6 54 6.7 44.1
11:30 1020 30.12 849 25.07 16.2 61.2 53 6.7 44.1
11:35 1020 30.12 849 25.07 16.5 61.7 51 6.4 43.5
11:40 1020 30.12 849 25.07 16.4 61.6 52 6.6 43.9
11:45 1020 30.12 849 25.07 16.1 61 52 6.5 43.7
11:50 1020 30.12 849 25.07 16.8 62.3 50 6.5 43.7
11:55 1020 30.12 849 25.07 17.3 63.2 49 6.7 44.1
12:00 1020 30.12 849 25.07 17 62.7 51 7 44.6
12:05 1020 30.12 849 25.07 16.7 62.1 52 7 44.6
12:10 1019 30.09 849 25.07 16.3 61.4 54 7.1 44.7
12:15 1019 30.09 849 25.07 16 60.7 56 7.3 45.1
12:20 1019 30.09 849 25.07 16 60.8 54 6.9 44.3
12:25 1019 30.09 849 25.07 17.1 62.8 52 7.3 45.1
12:30 1019 30.09 849 25.07 17.7 63.8 50 7.2 45
12:35 1019 30.09 849 25.07 17.3 63.1 50 7 44.6
12:40 1019 30.09 849 25.07 17.4 63.3 46 5.8 42.4
12:45 1019 30.09 848 25.04 17.3 63.2 49 6.6 43.9
12:50 1019 30.09 848 25.04 16.9 62.4 54 7.6 45.7
12:55 1019 30.09 849 25.07 16.4 61.5 52 6.6 43.8
13:00 1019 30.09 848 25.04 17.3 63.2 49 6.7 44.1
13:05 1019 30.09 848 25.04 17.2 63 52 7.4 45.3
13:10 1019 30.09 848 25.04 16.6 62 52 6.8 44.2
13:15 1019 30.09 848 25.04 16.4 61.6 52 6.7 44
13:20 1019 30.09 848 25.04 16.9 62.5 49 6.2 43.1
13:25 1019 30.09 848 25.04 17.5 63.4 48 6.6 43.8
13:30 1019 30.09 848 25.04 16.9 62.5 52 7 44.7
13:35 1019 30.09 848 25.04 15.5 60 57 7.1 44.7
13:40 1019 30.09 848 25.04 15.5 59.9 55 6.7 44.1
13:45 1019 30.09 848 25.04 16 60.8 50 5.6 42.1
13:50 1019 30.09 849 25.07 16.2 61.1 45 4.3 39.8
13:55 1019 30.09 849 25.07 15.6 60 52 5.9 42.7
14:00 1019 30.09 849 25.07 14.3 57.7 57 5.9 42.6
14:05 1019 30.09 849 25.07 14.1 57.4 53 4.7 40.5
14:10 1019 30.09 849 25.07 14.2 57.5 55 5.3 41.5
14:15 1019 30.09 849 25.07 15.4 59.7 48 4.6 40.3
14:20 1019 30.09 848 25.04 16.7 62.1 44 4.5 40
14:25 1019 30.09 848 25.04 16.8 62.2 43 4.3 39.7
14:30 1019 30.09 848 25.04 16.6 61.8 45 4.6 40.4
14:35 1019 30.09 848 25.04 15.9 60.5 46 4.4 39.9
14:40 1019 30.09 848 25.04 16.3 61.4 45 4.5 40.1
14:45 1019 30.09 848 25.04 16.9 62.4 40 3.4 38.2
14:50 1019 30.09 848 25.04 17.6 63.6 40 3.8 38.8
14:55 1019 30.09 848 25.04 18.5 65.2 38 3.9 39
15:00 1019 30.09 848 25.04 18.6 65.4 37 3.6 38.6
15:05 1019 30.09 848 25.04 18.9 66 36 3.5 38.2
15:10 1019 30.09 848 25.04 19.2 66.6 35 3.7 38.6
15:15 1019 30.09 848 25.04 19.5 67.2 35 3.8 38.8
15:20 1019 30.09 848 25.04 19.5 67.1 34 3.4 38.2
15:25 1019 30.09 848 25.04 19.7 67.5 33 3.3 37.9
15:30 1019 30.09 848 25.04 19.4 67 35 3.7 38.7
15:35 1019 30.09 848 25.04 19.3 66.7 35 3.6 38.5
15:40 1019 30.09 848 25.04 19.2 66.5 35 3.4 38.1
15:45 1019 30.09 848 25.04 20 67.9 33 3.4 38.1
15:50 1019 30.09 848 25.04 20.9 69.6 33 4.4 39.9
15:55 1019 30.09 848 25.04 19 66.1 42 5.9 42.6
16:00 1019 30.09 848 25.04 18 64.4 41 4.8 40.6
16:05 1019 30.09 848 25.04 18 64.3 41 4.7 40.4
16:10 1019 30.09 848 25.04 17.3 63.2 43 4.8 40.7
16:15 1019 30.09 848 25.04 17.5 63.6 43 4.9 40.7
16:20 1019 30.09 848 25.04 17.8 64 43 5.2 41.3
16:25 1019 30.09 848 25.04 17.9 64.2 44 5.7 42.3
16:30 1019 30.09 848 25.04 18 64.4 44 5.7 42.3
16:35 1019 30.09 848 25.04 17.9 64.1 44 5.7 42.2
16:40 1019 30.09 848 25.04 17.6 63.6 45 5.7 42.3
16:45 1019 30.09 848 25.04 17.4 63.2 45 5.5 41.9
16:50 1019 30.09 848 25.04 17.3 63.2 45 5.3 41.5
16:55 1019 30.09 848 25.04 17.7 63.9 43 5.1 41.2
17:00 1019 30.09 848 25.04 18.2 64.7 41 5 40.9
17:05 1019 30.09 848 25.04 17.9 64.1 42 5 40.9
17:10 1019 30.09 848 25.04 17.6 63.7 43 5 41
17:15 1019 30.09 848 25.04 18 64.5 42 4.9 40.8
17:20 1019 30.09 848 25.04 18.7 65.6 41 5.1 41.3
17:25 1019 30.09 848 25.04 18.6 65.4 41 5.1 41.3
17:30 1019 30.09 848 25.04 17.7 63.9 43 5.2 41.3
17:35 1019 30.09 848 25.04 17.5 63.5 44 5.2 41.4
17:40 1019 30.09 848 25.04 17.5 63.6 45 5.5 42
17:45 1019 30.09 848 25.04 17.6 63.8 44 5.5 41.9
17:50 1019 30.09 848 25.04 17.6 63.7 43 5 41.1
17:55 1019 30.09 848 25.04 17.4 63.4 44 5.2 41.4
18:00 1019 30.09 848 25.04 17.4 63.2 44 5.1 41.1
18:05 1019 30.09 848 25.04 17.3 63.2 44 5 40.9
18:10 1019 30.09 848 25.04 16.9 62.4 48 5.8 42.5
18:15 1019 30.09 848 25.04 16.6 61.8 48 5.7 42.2
18:20 1019 30.09 848 25.04 16.4 61.6 48 5.4 41.7
18:25 1019 30.09 848 25.04 16.1 61 48 5.3 41.5
18:30 1019 30.09 848 25.04 16.1 60.9 47 5 40.9
18:35 1019 30.09 848 25.04 16.3 61.4 48 5.3 41.5
18:40 1019 30.09 848 25.04 16.5 61.6 49 5.9 42.6
18:45 1019 30.09 848 25.04 16.4 61.4 51 6.4 43.4
18:50 1019 30.09 848 25.04 16.3 61.4 51 6.4 43.5
18:55 1019 30.09 848 25.04 16.3 61.3 50 5.9 42.7
19:00 1019 30.09 848 25.04 16.7 62 49 6.1 43
19:05 1019 30.09 848 25.04 17.2 63 48 6.4 43.5
19:10 1019 30.09 848 25.04 17.5 63.6 45 5.7 42.2
19:15 1019 30.09 849 25.07 17.4 63.3 48 6.4 43.6
19:20 1019 30.09 849 25.07 16.4 61.5 53 6.9 44.4
19:25 1019 30.09 849 25.07 15.5 60 56 6.9 44.4
19:30 1020 30.12 849 25.07 14.9 58.7 60 7.1 44.8
19:35 1020 30.12 849 25.07 14.3 57.7 61 6.9 44.5
19:40 1020 30.12 849 25.07 14.2 57.5 61 6.7 44.1
19:45 1020 30.12 849 25.07 14.1 57.3 61 6.6 43.9
19:50 1020 30.12 849 25.07 14.1 57.3 59 6.4 43.5
19:55 1020 30.12 849 25.07 14.1 57.5 59 6.4 43.5
20:00 1020 30.12 849 25.07 14.1 57.5 58 6.1 43.1
20:05 1020 30.12 849 25.07 14.1 57.4 58 6.1 43
20:10 1020 30.12 849 25.07 14.2 57.5 57 5.9 42.7
20:15 1020 30.12 849 25.07 14.4 57.9 58 6.2 43.2
20:20 1020 30.12 849 25.07 14.5 58.1 56 6 42.8
20:25 1020 30.12 849 25.07 14.6 58.2 56 5.9 42.7
20:30 1020 30.12 849 25.07 14.6 58.3 56 6 42.8
20:35 1020 30.12 849 25.07 14.6 58.2 56 6 42.8
20:40 1020 30.12 849 25.07 14.5 58.2 56 6 42.8
20:45 1020 30.12 850 25.1 14.5 58.1 57 6.3 43.3
20:50 1020 30.12 850 25.1 14.5 58 57 6.1 43
20:55 1020 30.12 850 25.1 14.4 57.8 57 6 42.7
21:00 1020 30.12 850 25.1 14.3 57.7 57 5.8 42.5
21:05 1020 30.12 850 25.1 14.2 57.5 57 6 42.7
21:10 1020 30.12 850 25.1 14.2 57.5 57 5.7 42.3
21:15 1021 30.15 850 25.1 14 57.2 59 6.2 43.1
21:20 1021 30.15 850 25.1 13.4 56.1 63 6.5 43.6
21:25 1021 30.15 850 25.1 13.2 55.8 63 6.4 43.5
21:30 1021 30.15 850 25.1 13.4 56.1 62 6.3 43.3
21:35 1021 30.15 850 25.1 13.4 56.1 65 7 44.6
21:40 1021 30.15 850 25.1 13.2 55.7 68 7.5 45.4
21:45 1021 30.15 850 25.1 12.6 54.6 74 8.2 46.7
21:50 1021 30.15 850 25.1 12 53.5 79 8.4 47.1
21:55 1021 30.15 850 25.1 11.8 53.2 82 8.9 48
22:00 1021 30.15 850 25.1 11.8 53.3 83 9 48.2
22:05 1021 30.15 850 25.1 11.9 53.5 81 8.8 47.9
22:10 1021 30.15 850 25.1 11.8 53.2 83 9.1 48.3
22:15 1021 30.15 850 25.1 11.6 52.9 82 8.8 47.8
22:20 1021 30.15 850 25.1 11.3 52.4 82 8.4 47.2
22:25 1021 30.15 850 25.1 11.5 52.7 84 8.9 48
22:30 1021 30.15 851 25.13 11.4 52.6 83 8.7 47.7
22:35 1021 30.15 851 25.13 11.6 52.9 84 9 48.2
22:40 1021 30.15 851 25.13 11.9 53.4 85 9.4 48.9
22:45 1022 30.18 851 25.13 12.1 53.7 84 9.5 49.1
22:50 1022 30.18 851 25.13 12.2 54 85 9.8 49.6
22:55 1022 30.18 851 25.13 12.1 53.8 82 9.2 48.6
23:00 1022 30.18 851 25.13 12 53.5 82 9 48.1
23:05 1022 30.18 851 25.13 11.8 53.3 80 8.6 47.4
23:10 1022 30.18 851 25.13 11.8 53.2 80 8.4 47.1
23:15 1022 30.18 851 25.13 11.4 52.6 83 8.6 47.5
23:20 1022 30.18 851 25.13 10.9 51.6 85 8.6 47.4
23:25 1022 30.18 851 25.13 10.9 51.7 87 8.8 47.8
23:30 1022 30.18 851 25.13 10.9 51.6 85 8.5 47.4
23:35 1022 30.18 851 25.13 10.8 51.5 86 8.6 47.5
23:40 1022 30.18 851 25.13 10.6 51.2 84 8.1 46.6
23:45 1022 30.18 851 25.13 10.8 51.4 86 8.6 47.6
23:50 1022 30.18 851 25.13 10.4 50.7 88 8.5 47.3
23:55 1022 30.18 851 25.13 10.2 50.4 89 8.5 47.3
24:00 1022 30.18 851 25.13 10.1 50.1 91 8.6 47.5